createdAt,value
2022-12-15T00:02:35.332Z,34.00
2022-12-15T00:05:21.397Z,33.92
2022-12-15T00:08:06.721Z,35.47
2022-12-15T00:10:52.185Z,35.17
2022-12-15T00:13:38.684Z,34.30
2022-12-15T00:16:24.710Z,33.67
2022-12-15T00:19:12.396Z,32.75
2022-12-15T00:21:57.661Z,33.42
2022-12-15T00:24:42.995Z,31.15
2022-12-15T00:27:28.395Z,31.20
2022-12-15T00:30:15.857Z,32.67
2022-12-15T00:33:01.244Z,30.35
2022-12-15T00:35:46.546Z,34.15
2022-12-15T00:38:34.289Z,32.20
2022-12-15T00:41:01.751Z,31.65
2022-12-15T00:43:33.616Z,31.20
2022-12-15T00:46:21.621Z,32.53
2022-12-15T00:48:48.645Z,32.38
2022-12-15T00:51:16.114Z,31.77
2022-12-15T00:54:04.111Z,32.78
2022-12-15T00:56:50.275Z,29.27
2022-12-15T00:59:36.237Z,30.60
2022-12-15T01:02:22.877Z,30.67
2022-12-15T01:05:08.371Z,29.38
2022-12-15T01:07:53.840Z,30.90
2022-12-15T01:10:39.213Z,32.15
2022-12-15T01:13:25.115Z,31.55
2022-12-15T01:16:10.550Z,29.80
2022-12-15T01:18:57.013Z,30.75
2022-12-15T01:21:25.558Z,30.38
2022-12-15T01:23:53.659Z,29.40
2022-12-15T01:26:20.641Z,29.65
2022-12-15T01:28:49.408Z,28.77
2022-12-15T01:31:17.319Z,29.05
2022-12-15T01:33:44.127Z,28.10
2022-12-15T01:36:11.617Z,30.13
2022-12-15T01:38:38.486Z,31.77
2022-12-15T01:41:10.180Z,29.92
2022-12-15T01:43:39.495Z,30.50
2022-12-15T01:46:10.092Z,30.42
2022-12-15T01:48:48.936Z,29.67
2022-12-15T01:51:33.982Z,26.75
2022-12-15T01:54:17.424Z,25.80
2022-12-15T01:56:47.535Z,27.60
2022-12-15T01:59:19.753Z,26.75
2022-12-15T02:01:49.708Z,27.52
2022-12-15T02:04:21.017Z,25.83
2022-12-15T02:06:48.330Z,27.70
2022-12-15T02:09:18.788Z,27.48
2022-12-15T02:12:11.499Z,27.77
2022-12-15T02:15:13.257Z,26.90
2022-12-15T02:18:19.716Z,27.40
2022-12-15T02:21:01.195Z,27.55
2022-12-15T02:23:49.861Z,27.80
2022-12-15T02:26:37.981Z,27.02
2022-12-15T02:29:10.679Z,29.05
2022-12-15T02:31:52.384Z,27.70
2022-12-15T02:34:53.551Z,27.95
2022-12-15T02:37:32.085Z,28.10
2022-12-15T02:39:59.253Z,26.67
2022-12-15T02:42:28.497Z,27.48
2022-12-15T02:45:15.470Z,27.40
2022-12-15T02:47:54.900Z,27.35
2022-12-15T02:50:53.651Z,27.35
2022-12-15T02:53:54.084Z,27.48
2022-12-15T02:56:32.407Z,27.67
2022-12-15T02:59:11.066Z,28.10
2022-12-15T03:01:49.472Z,25.90
2022-12-15T03:04:18.093Z,26.77
2022-12-15T03:06:45.212Z,27.33
2022-12-15T03:09:12.545Z,29.23
2022-12-15T03:11:39.408Z,27.63
2022-12-15T03:14:06.628Z,26.52
2022-12-15T03:16:33.701Z,26.80
2022-12-15T03:19:00.643Z,27.67
2022-12-15T03:21:27.636Z,27.08
2022-12-15T03:23:56.429Z,28.60
2022-12-15T03:26:24.453Z,28.02
2022-12-15T03:28:51.275Z,27.85
2022-12-15T03:31:18.136Z,27.70
2022-12-15T03:33:45.037Z,25.95
2022-12-15T03:36:11.859Z,27.17
2022-12-15T03:38:39.681Z,26.98
2022-12-15T03:41:06.593Z,26.52
2022-12-15T03:43:34.146Z,26.63
2022-12-15T03:46:01.228Z,27.17
2022-12-15T03:48:28.287Z,25.67
2022-12-15T03:50:55.355Z,26.27
2022-12-15T03:53:23.315Z,26.52
2022-12-15T03:55:51.136Z,26.10
2022-12-15T03:58:19.022Z,26.83
2022-12-15T04:00:45.879Z,27.23
2022-12-15T04:03:12.990Z,24.88
2022-12-15T04:05:41.147Z,25.48
2022-12-15T04:08:09.062Z,25.77
2022-12-15T04:10:36.063Z,26.00
2022-12-15T04:13:06.675Z,25.60
2022-12-15T04:15:36.325Z,25.70
2022-12-15T04:18:06.261Z,25.23
2022-12-15T04:20:33.551Z,26.00
2022-12-15T04:23:00.730Z,26.67
2022-12-15T04:25:47.357Z,24.75
2022-12-15T04:28:33.080Z,25.77
2022-12-15T04:31:25.510Z,24.33
2022-12-15T04:34:14.385Z,24.58
2022-12-15T04:37:03.484Z,25.05
2022-12-15T04:39:49.177Z,25.45
2022-12-15T04:42:35.027Z,25.85
2022-12-15T04:45:24.326Z,23.77
2022-12-15T04:48:11.421Z,26.45
2022-12-15T04:50:57.472Z,25.35
2022-12-15T04:53:43.084Z,24.70
2022-12-15T04:56:31.099Z,25.33
2022-12-15T04:59:18.560Z,24.52
2022-12-15T05:02:03.958Z,25.13
2022-12-15T05:04:49.774Z,25.92
2022-12-15T05:07:36.152Z,25.73
2022-12-15T05:10:22.514Z,24.80
2022-12-15T05:13:07.931Z,26.50
2022-12-15T05:15:53.774Z,26.30
2022-12-15T05:18:39.514Z,24.77
2022-12-15T05:21:25.777Z,25.73
2022-12-15T05:24:12.135Z,26.27
2022-12-15T05:26:57.386Z,25.08
2022-12-15T05:29:44.560Z,26.38
2022-12-15T05:32:13.257Z,26.20
2022-12-15T05:34:40.102Z,26.30
2022-12-15T05:37:07.896Z,25.83
2022-12-15T05:39:35.148Z,25.88
2022-12-15T05:42:02.044Z,26.67
2022-12-15T05:44:29.940Z,25.88
2022-12-15T05:46:57.983Z,26.65
2022-12-15T05:49:25.928Z,26.27
2022-12-15T05:51:53.801Z,24.95
2022-12-15T05:54:21.348Z,25.50
2022-12-15T05:56:50.026Z,25.63
2022-12-15T05:59:17.823Z,24.70
2022-12-15T06:01:45.128Z,26.55
2022-12-15T06:04:16.764Z,25.85
2022-12-15T06:06:43.907Z,18.67
2022-12-15T06:09:12.048Z,24.65
2022-12-15T06:11:39.181Z,24.83
2022-12-15T06:14:08.664Z,25.08
2022-12-15T06:16:42.585Z,25.65
2022-12-15T06:19:19.336Z,25.52
2022-12-15T06:21:46.322Z,24.73
2022-12-15T06:24:14.403Z,26.33
2022-12-15T06:26:41.501Z,25.85
2022-12-15T06:29:10.734Z,26.20
2022-12-15T06:31:39.909Z,25.40
2022-12-15T06:34:13.559Z,25.42
2022-12-15T06:36:40.480Z,24.88
2022-12-15T06:39:11.420Z,25.50
2022-12-15T06:41:40.107Z,25.58
2022-12-15T06:44:07.739Z,26.10
2022-12-15T06:46:35.752Z,25.80
2022-12-15T06:49:03.264Z,26.63
2022-12-15T06:51:31.216Z,27.80
2022-12-15T06:53:59.083Z,25.88
2022-12-15T06:56:34.422Z,25.17
2022-12-15T06:59:03.545Z,25.25
2022-12-15T07:01:31.188Z,24.45
2022-12-15T07:04:03.429Z,24.13
2022-12-15T07:06:39.037Z,25.30
2022-12-15T07:09:12.461Z,25.73
2022-12-15T07:11:44.147Z,24.77
2022-12-15T07:14:12.138Z,19.17
2022-12-15T07:16:39.241Z,24.73
2022-12-15T07:19:06.202Z,25.52
2022-12-15T07:21:34.128Z,26.33
2022-12-15T07:24:02.756Z,25.27
2022-12-15T07:26:30.540Z,24.40
2022-12-15T07:28:57.592Z,25.15
2022-12-15T07:31:26.655Z,25.80
2022-12-15T07:33:55.658Z,26.05
2022-12-15T07:36:23.626Z,25.92
2022-12-15T07:38:51.988Z,26.80
2022-12-15T07:41:21.066Z,26.40
2022-12-15T07:43:48.565Z,26.98
2022-12-15T07:46:16.536Z,26.50
2022-12-15T07:48:43.515Z,26.08
2022-12-15T07:51:18.828Z,25.40
2022-12-15T07:53:49.753Z,26.27
2022-12-15T07:56:19.382Z,25.90
2022-12-15T07:58:46.783Z,26.08
2022-12-15T08:01:14.897Z,28.42
2022-12-15T08:03:43.328Z,29.35
2022-12-15T08:06:14.950Z,29.00
2022-12-15T08:08:43.311Z,26.85
2022-12-15T08:11:14.305Z,27.75
2022-12-15T08:16:31.055Z,26.90
2022-12-15T08:18:57.954Z,27.63
2022-12-15T08:21:26.003Z,23.45
2022-12-15T08:23:53.094Z,23.27
2022-12-15T08:26:29.804Z,24.45
2022-12-15T08:29:11.743Z,24.05
2022-12-15T08:31:45.762Z,24.30
2022-12-15T08:34:14.653Z,23.63
2022-12-15T08:36:41.541Z,25.02
2022-12-15T08:39:08.422Z,23.95
2022-12-15T08:41:35.415Z,24.20
2022-12-15T08:44:03.776Z,23.38
2022-12-15T08:46:34.065Z,22.38
2022-12-15T08:49:02.614Z,23.00
2022-12-15T08:51:31.128Z,22.75
2022-12-15T08:53:59.267Z,22.40
2022-12-15T08:56:27.792Z,21.23
2022-12-15T08:58:57.288Z,21.92
2022-12-15T09:01:27.038Z,22.20
2022-12-15T09:03:56.397Z,22.92
2022-12-15T09:06:27.352Z,24.40
2022-12-15T09:08:59.603Z,21.77
2022-12-15T09:11:27.798Z,23.13
2022-12-15T09:13:54.905Z,21.80
2022-12-15T09:16:23.627Z,23.27
2022-12-15T09:18:54.520Z,23.92
2022-12-15T09:21:24.058Z,22.70
2022-12-15T09:23:52.175Z,24.25
2022-12-15T09:26:22.833Z,26.02
2022-12-15T09:28:51.011Z,26.88
2022-12-15T09:31:22.306Z,31.90
2022-12-15T09:33:53.387Z,31.38
2022-12-15T09:36:20.364Z,32.92
2022-12-15T09:38:47.372Z,29.48
2022-12-15T09:41:24.482Z,27.48
2022-12-15T09:44:12.576Z,28.02
2022-12-15T09:47:05.958Z,27.92
2022-12-15T09:49:55.878Z,27.35
2022-12-15T09:52:28.010Z,28.27
2022-12-15T09:54:55.942Z,27.67
2022-12-15T09:57:37.650Z,27.08
2022-12-15T10:00:21.851Z,26.35
2022-12-15T10:03:28.571Z,26.70
2022-12-15T10:06:18.977Z,26.65
2022-12-15T10:08:54.854Z,28.50
2022-12-15T10:11:55.523Z,27.50
2022-12-15T10:14:27.587Z,27.20
2022-12-15T10:17:06.393Z,27.40
2022-12-15T10:19:52.029Z,25.52
2022-12-15T10:22:25.762Z,25.50
2022-12-15T10:25:11.075Z,26.30
2022-12-15T10:28:06.932Z,24.13
2022-12-15T10:30:35.334Z,23.08
2022-12-15T10:33:26.183Z,22.25
2022-12-15T10:35:55.976Z,22.75
2022-12-15T10:38:42.590Z,22.83
2022-12-15T10:41:12.738Z,21.60
2022-12-15T10:43:42.466Z,23.20
2022-12-15T10:46:18.655Z,21.73
2022-12-15T10:48:49.977Z,21.45
2022-12-15T10:51:21.953Z,21.90
2022-12-15T10:53:55.490Z,22.15
2022-12-15T10:56:33.257Z,21.83
2022-12-15T10:59:23.157Z,22.73
2022-12-15T11:01:52.313Z,21.85
2022-12-15T11:04:31.379Z,22.02
2022-12-15T11:07:00.918Z,23.20
2022-12-15T11:09:39.107Z,23.02
2022-12-15T11:12:40.003Z,23.83
2022-12-15T11:15:31.352Z,23.77
2022-12-15T11:18:29.542Z,21.70
2022-12-15T11:21:00.927Z,21.77
2022-12-15T11:24:09.502Z,21.77
2022-12-15T11:26:56.825Z,20.55
2022-12-15T11:29:34.818Z,21.30
2022-12-15T11:32:07.011Z,21.42
2022-12-15T11:34:42.481Z,21.15
2022-12-15T11:37:36.283Z,21.33
2022-12-15T11:40:43.221Z,18.50
2022-12-15T11:43:40.874Z,19.83
2022-12-15T11:46:21.341Z,19.08
2022-12-15T11:49:06.282Z,20.15
2022-12-15T11:51:42.501Z,21.25
2022-12-15T11:54:39.694Z,21.27
2022-12-15T11:57:39.124Z,20.08
2022-12-15T12:00:09.257Z,19.35
2022-12-15T12:03:18.211Z,20.33
2022-12-15T12:06:13.389Z,19.15
2022-12-15T12:09:07.026Z,19.05
2022-12-15T12:12:24.599Z,20.60
2022-12-15T12:15:08.912Z,19.30
2022-12-15T12:17:43.897Z,18.73
2022-12-15T12:20:25.146Z,19.67
2022-12-15T12:23:15.390Z,22.52
2022-12-15T12:25:51.981Z,22.63
2022-12-15T12:29:01.914Z,20.98
2022-12-15T12:31:45.644Z,23.35
2022-12-15T12:34:21.530Z,25.38
2022-12-15T12:36:50.028Z,32.95
2022-12-15T12:39:21.107Z,30.30
2022-12-15T12:42:16.128Z,36.60
2022-12-15T12:44:46.537Z,38.08
2022-12-15T12:47:28.070Z,32.97
2022-12-15T12:50:18.825Z,36.55
2022-12-15T12:52:52.776Z,37.70
2022-12-15T12:55:49.685Z,36.75
2022-12-15T12:58:38.354Z,36.47
2022-12-15T13:01:05.252Z,36.28
2022-12-15T13:03:32.577Z,35.45
2022-12-15T13:06:21.939Z,35.28
2022-12-15T13:08:55.822Z,35.22
2022-12-15T13:11:53.699Z,31.33
2022-12-15T13:14:34.810Z,29.75
2022-12-15T13:17:29.016Z,29.15
2022-12-15T13:19:59.281Z,26.80
2022-12-15T13:22:42.079Z,29.23
2022-12-15T13:25:41.362Z,25.02
2022-12-15T13:28:36.280Z,23.52
2022-12-15T13:31:21.767Z,20.40
2022-12-15T13:33:54.886Z,18.17
2022-12-15T13:36:37.101Z,17.98
2022-12-15T13:39:27.834Z,19.65
2022-12-15T13:44:55.073Z,19.42
2022-12-15T13:47:28.783Z,17.75
2022-12-15T13:50:03.253Z,18.27
2022-12-15T13:55:38.365Z,14.40
2022-12-15T13:58:18.040Z,14.00
2022-12-15T14:00:53.631Z,13.52
2022-12-15T14:03:20.949Z,15.55
2022-12-15T14:05:59.524Z,16.48
2022-12-15T14:08:29.739Z,16.33
2022-12-15T14:11:00.053Z,17.20
2022-12-15T14:13:31.907Z,19.13
2022-12-15T14:16:28.342Z,21.08
2022-12-15T14:19:17.491Z,22.20
2022-12-15T14:21:59.452Z,21.50
2022-12-15T14:24:40.422Z,17.88
2022-12-15T14:27:08.968Z,23.77
2022-12-15T14:29:36.035Z,24.20
2022-12-15T14:32:03.602Z,24.80
2022-12-15T14:34:41.774Z,25.20
2022-12-15T14:37:18.991Z,26.55
2022-12-15T14:39:50.441Z,26.95
2022-12-15T14:42:27.820Z,26.75
2022-12-15T14:44:58.365Z,27.35
2022-12-15T14:47:30.339Z,30.75
2022-12-15T14:50:04.566Z,29.37
2022-12-15T14:52:38.909Z,28.80
2022-12-15T14:55:27.741Z,27.02
2022-12-15T14:57:54.568Z,25.27
2022-12-15T15:00:26.151Z,22.73
2022-12-15T15:03:18.884Z,19.80
2022-12-15T15:06:12.692Z,21.08
2022-12-15T15:11:36.853Z,19.85
2022-12-15T15:14:11.186Z,21.08
2022-12-15T15:16:38.283Z,21.55
2022-12-15T15:19:05.576Z,21.27
2022-12-15T15:21:39.052Z,20.73
2022-12-15T15:24:12.165Z,21.50
2022-12-15T15:26:43.137Z,21.80
2022-12-15T15:29:41.029Z,21.52
2022-12-15T15:32:22.261Z,21.45
2022-12-15T15:34:49.540Z,22.48
2022-12-15T15:37:25.908Z,22.65
2022-12-15T15:39:55.035Z,23.52
2022-12-15T15:42:25.442Z,23.88
2022-12-15T15:44:57.257Z,23.13
2022-12-15T15:47:25.459Z,23.17
2022-12-15T15:49:54.744Z,23.38
2022-12-15T15:52:22.313Z,24.33
2022-12-15T15:54:49.636Z,25.05
2022-12-15T15:57:19.130Z,23.45
2022-12-15T15:59:46.988Z,24.17
2022-12-15T16:02:15.548Z,24.85
2022-12-15T16:04:44.008Z,24.60
2022-12-15T16:07:23.468Z,24.83
2022-12-15T16:09:51.633Z,24.40
2022-12-15T16:12:31.048Z,25.60
2022-12-15T16:14:57.878Z,26.13
2022-12-15T16:17:25.764Z,26.50
2022-12-15T16:19:52.610Z,26.65
2022-12-15T16:22:21.376Z,27.48
2022-12-15T16:24:48.739Z,27.95
2022-12-15T16:27:16.314Z,27.38
2022-12-15T16:29:43.595Z,27.83
2022-12-15T16:32:12.459Z,28.30
2022-12-15T16:34:39.440Z,29.55
2022-12-15T16:37:09.012Z,29.70
2022-12-15T16:39:36.423Z,29.73
2022-12-15T16:42:12.119Z,28.63
2022-12-15T16:44:38.953Z,28.05
2022-12-15T16:47:05.789Z,27.90
2022-12-15T16:49:39.851Z,27.70
2022-12-15T16:52:24.422Z,28.05
2022-12-15T16:54:51.386Z,28.38
2022-12-15T16:57:18.568Z,27.77
2022-12-15T16:59:46.261Z,28.25
2022-12-15T17:02:28.894Z,28.17
2022-12-15T17:04:58.268Z,31.42
2022-12-15T17:07:27.702Z,33.22
2022-12-15T17:09:56.531Z,33.05
2022-12-15T17:12:25.155Z,34.88
2022-12-15T17:14:52.099Z,35.45
2022-12-15T17:17:20.069Z,35.10
2022-12-15T17:20:19.879Z,36.40
2022-12-15T17:22:36.746Z,36.45
2022-12-15T17:25:05.030Z,36.42
2022-12-15T17:27:33.052Z,70.43
2022-12-15T17:30:01.918Z,53.88
2022-12-15T17:32:28.843Z,40.20
2022-12-15T17:34:55.874Z,44.22
2022-12-15T17:37:28.017Z,48.08
2022-12-15T17:39:58.428Z,46.95
2022-12-15T17:42:28.463Z,39.72
2022-12-15T17:44:57.359Z,40.15
2022-12-15T17:47:25.641Z,40.17
2022-12-15T17:49:55.126Z,38.63
2022-12-15T17:52:30.494Z,35.55
2022-12-15T17:55:03.231Z,37.45
2022-12-15T17:57:33.402Z,37.28
2022-12-15T18:00:02.926Z,36.42
2022-12-15T18:02:49.963Z,31.73
2022-12-15T18:05:18.879Z,32.83
2022-12-15T18:07:49.480Z,33.47
2022-12-15T18:10:43.755Z,32.65
2022-12-15T18:13:41.930Z,34.53
2022-12-15T18:16:10.347Z,35.80
2022-12-15T18:18:38.402Z,33.33
2022-12-15T18:21:15.440Z,34.08
2022-12-15T18:23:46.426Z,35.55
2022-12-15T18:26:14.729Z,34.40
2022-12-15T18:28:41.766Z,33.95
2022-12-15T18:31:27.574Z,32.33
2022-12-15T18:34:00.953Z,32.08
2022-12-15T18:36:31.299Z,30.80
2022-12-15T18:38:59.419Z,32.55
2022-12-15T18:41:28.331Z,32.72
2022-12-15T18:43:58.588Z,29.15
2022-12-15T18:46:28.576Z,31.42
2022-12-15T18:48:56.544Z,30.27
2022-12-15T18:51:23.979Z,32.40
2022-12-15T18:53:54.218Z,42.67
2022-12-15T18:56:21.743Z,35.40
2022-12-15T18:58:48.764Z,32.28
2022-12-15T19:01:19.351Z,32.53
2022-12-15T19:03:50.281Z,34.00
2022-12-15T19:06:34.847Z,30.55
2022-12-15T19:09:14.577Z,30.13
2022-12-15T19:12:03.213Z,30.23
2022-12-15T19:14:42.846Z,29.90
2022-12-15T19:17:44.757Z,27.77
2022-12-15T19:20:37.887Z,27.63
2022-12-15T19:25:33.018Z,26.08
2022-12-15T19:28:01.721Z,26.90
2022-12-15T19:30:31.546Z,27.55
2022-12-15T19:32:58.557Z,28.20
2022-12-15T19:35:31.370Z,29.60
2022-12-15T19:38:01.877Z,37.03
2022-12-15T19:40:32.316Z,33.75
2022-12-15T19:43:00.937Z,30.10
2022-12-15T19:45:31.904Z,27.83
2022-12-15T19:47:59.778Z,28.55
2022-12-15T19:50:30.955Z,28.27
2022-12-15T19:53:03.608Z,27.95
2022-12-15T19:58:21.021Z,26.40
2022-12-15T20:00:52.058Z,28.55
2022-12-15T20:03:20.827Z,29.23
2022-12-15T20:05:53.396Z,28.88
2022-12-15T20:08:23.979Z,31.27
2022-12-15T20:10:52.466Z,32.00
2022-12-15T20:13:21.409Z,33.28
2022-12-15T20:15:50.360Z,33.50
2022-12-15T20:18:19.361Z,34.33
2022-12-15T20:20:49.249Z,37.70
2022-12-15T20:23:25.954Z,35.28
2022-12-15T20:25:56.058Z,34.08
2022-12-15T20:28:27.723Z,33.60
2022-12-15T20:31:05.392Z,37.63
2022-12-15T20:33:32.793Z,60.20
2022-12-15T20:36:00.951Z,50.80
2022-12-15T20:38:35.773Z,51.05
2022-12-15T20:41:04.183Z,48.17
2022-12-15T20:43:35.315Z,37.17
2022-12-15T20:46:14.596Z,36.67
2022-12-15T20:48:44.879Z,35.72
2022-12-15T20:51:39.232Z,37.15
2022-12-15T20:54:13.257Z,35.70
2022-12-15T20:56:42.983Z,40.15
2022-12-15T20:59:10.577Z,37.85
2022-12-15T21:01:41.700Z,39.15
2022-12-15T21:04:29.749Z,44.33
2022-12-15T21:06:59.019Z,44.47
2022-12-15T21:09:26.981Z,38.00
2022-12-15T21:11:55.154Z,39.45
2022-12-15T21:14:24.260Z,40.30
2022-12-15T21:16:51.438Z,38.53
2022-12-15T21:19:20.915Z,39.42
2022-12-15T21:21:54.908Z,37.90
2022-12-15T21:24:28.453Z,36.38
2022-12-15T21:26:56.416Z,37.72
2022-12-15T21:29:29.592Z,36.40
2022-12-15T21:32:17.108Z,38.15
2022-12-15T21:34:49.048Z,38.85
2022-12-15T21:37:28.591Z,28.23
2022-12-15T21:39:56.504Z,38.40
2022-12-15T21:42:23.958Z,38.13
2022-12-15T21:44:50.973Z,37.25
2022-12-15T21:47:24.879Z,39.30
2022-12-15T21:49:52.853Z,37.13
2022-12-15T21:52:21.206Z,38.95
2022-12-15T21:54:48.134Z,39.13
2022-12-15T21:57:16.071Z,38.95
2022-12-15T21:59:44.301Z,39.00
2022-12-15T22:02:24.551Z,38.22
2022-12-15T22:04:52.549Z,37.45
2022-12-15T22:07:20.534Z,37.38
2022-12-15T22:09:49.704Z,36.95
2022-12-15T22:12:23.282Z,36.33
2022-12-15T22:14:52.233Z,36.63
2022-12-15T22:17:22.260Z,36.53
2022-12-15T22:19:50.186Z,35.97
2022-12-15T22:22:17.527Z,38.00
2022-12-15T22:24:45.561Z,37.00
2022-12-15T22:27:21.044Z,37.88
2022-12-15T22:29:50.199Z,37.70
2022-12-15T22:32:17.891Z,37.92
2022-12-15T22:34:45.027Z,38.97
2022-12-15T22:37:12.996Z,38.10
2022-12-15T22:39:40.159Z,37.45
2022-12-15T22:42:07.356Z,37.78
2022-12-15T22:44:37.570Z,35.33
2022-12-15T22:47:06.249Z,35.67
2022-12-15T22:49:38.230Z,38.42
2022-12-15T22:52:19.573Z,36.33
2022-12-15T22:54:47.822Z,37.58
2022-12-15T22:57:23.922Z,35.90
2022-12-15T23:00:00.721Z,36.25
2022-12-15T23:02:31.317Z,34.33
2022-12-15T23:04:58.387Z,33.55
2022-12-15T23:07:26.118Z,34.75
2022-12-15T23:10:14.550Z,34.17
2022-12-15T23:12:41.691Z,33.67
2022-12-15T23:15:27.675Z,34.33
2022-12-15T23:17:56.782Z,33.85
2022-12-15T23:20:24.699Z,30.05
2022-12-15T23:22:53.736Z,31.55
2022-12-15T23:25:21.846Z,30.35
2022-12-15T23:27:50.187Z,29.52
2022-12-15T23:30:17.814Z,29.55
2022-12-15T23:32:44.838Z,29.42
2022-12-15T23:35:11.796Z,28.77
2022-12-15T23:37:38.920Z,30.50
2022-12-15T23:40:07.823Z,31.80
2022-12-15T23:42:35.793Z,29.83
2022-12-15T23:45:04.587Z,30.92
2022-12-15T23:47:32.059Z,30.30
2022-12-15T23:49:59.216Z,30.08
2022-12-15T23:52:28.634Z,29.42
2022-12-15T23:54:55.455Z,30.70
2022-12-15T23:57:24.661Z,28.80
2022-12-15T23:59:51.733Z,29.40
